This is the latest recevied weather packets stored in our database for station/object KN6RO-14. If no packets are shown the sender has not sent any weather packets the latest 1 day(s).
| Time | Temp. | Humidity | Pressure | Rain* | Wind** | Luminosity | Snow |
|---|---|---|---|---|---|---|---|
| 1778090047 | 17.78° C | 91% | 1013.8 hPa | 0 mm | - | - | - |
| 1778086447 | 17.22° C | 93% | 1013.6 hPa | 0 mm | - | - | - |
| 1778082847 | 16.67° C | 93% | 1013.2 hPa | 0.51 mm | - | - | - |
| 1778081047 | 16.67° C | 92% | 1014.7 hPa | 0.25 mm | - | - | - |
| 1778066648 | 16.67° C | 79% | 1012.4 hPa | 0 mm | - | - | - |
| 1778054048 | 17.78° C | 68% | 1011.7 hPa | 0 mm | - | - | - |
| 1778052248 | 17.78° C | 65% | 1011.8 hPa | 0 mm | - | - | - |
| 1778050448 | 17.78° C | 61% | 1012.1 hPa | 0 mm | - | - | - |
| 1778048648 | 18.33° C | 58% | 1012.6 hPa | 0 mm | - | - | - |
| 1778046848 | 18.33° C | 56% | 1012.7 hPa | 0 mm | - | - | - |
| 1778045048 | 18.33° C | 54% | 1012.8 hPa | 0 mm | - | - | - |
| 1778043248 | 18.33° C | 53% | 1012.6 hPa | 0 mm | - | - | - |
| 1778041448 | 18.33° C | 51% | 1013.2 hPa | 0 mm | - | - | - |
| 1778039648 | 18.89° C | 52% | 1012.8 hPa | 0 mm | - | - | - |
| 1778037848 | 18.89° C | 52% | 1013 hPa | 0 mm | - | - | - |
| 1778036048 | 18.89° C | 52% | 1013.2 hPa | 0 mm | - | - | - |
| 1778034248 | 18.89° C | 52% | 1012.8 hPa | 0 mm | - | - | - |
| 1778032448 | 18.89° C | 51% | 1012.8 hPa | 0 mm | - | - | - |
| 1778030648 | 18.89° C | 52% | 1012.5 hPa | 0 mm | - | - | - |
| 1778028848 | 18.89° C | 52% | 1012.3 hPa | 0 mm | - | - | - |
* Rain latest hour (hover to see other rain measurements)
** Current wind speed in m/s (hover to see current wind gust speed)